Hlavní strana
METAR-TAF:

METAR-TAF

Letiště :

Nuakšott, Mauritánie

zeměpisná šířka: 18-18-36N, zeměpisná délka: 015-58-11W, výška: 3 m

Aktuální stav počasí

Zpráva byla vytvořena před 19 minutami, v 22:00 UTC
Severoseverozápadní vítr 15 kt
Teplota 21°C
Vlhkost vzduchu 73%
Tlak 1013 hPa
Viditelnost: 8000 m

METAR: GQNO 252200Z 34015KT 8000 NSC 21/16 Q1013 NOSIG

Čas: 22:19 (22:19 UTC)

Předpověď počasí

Zpráva byla vytvořena před 5 hodinami a 19 minutami, v 17:00 UTC
Předpověď platná od 25 v 18 UTC do 26 v 24 UTC
Severoseverozápadní vítr 14 kt
Viditelnost: 6000 m
Změna
od 26 v 08 UTC do 26 v 11 UTC
Východoseverovýchodní vítr 15 kt
Viditelnost: 4000 m
zvířený prach
Změna
od 26 v 13 UTC do 26 v 15 UTC
Severoseverozápadní vítr 16 kt
Viditelnost: 6000 m

TAF: GQNO 251700Z 2518/2624 33014KT 6000 NSC BECMG 2608/2611 06015KT 4000 BLDU BECMG 2613/2615 33016KT 6000 NSW

Stav a předpovědi počasí z více než 4 000 letišť (zprávy METAR a TAF).

Červené a žluté tečky na mapě představují dostupné meteorologické stanice.

Když kurzor umístíte na tečku, zobrazí se název stanice.

Pak kliknutím zobrazíte stav a předpověď počasí.

Chcete-li změnit mapu, kliknutím na zelené tlačítko se znaménkem +mapu přiblížíte, kliknutím na zelené tlačítko se znaménkem – mapu oddálíte a kliknutím na zelené šipky přejdete na sousední mapy.


METAR-TAF: